1984 SHARON (1983359S13083)


On this page: IBTrACS data - Map and Plots - Positions - Intensities - Original source data

Summary

Start Dec 25
End Dec 31
Basin SI
LMI 55 kt
Sources td9636
neumann
In WMO? No
Previous storm 1984 BAKOLY (SI)
Previous in basin 1984 BAKOLY (SI)
Concurrent storms 1984 BAKOLY (SI)
1984 SHARON (SI)
1984 ATU (SP)
Next in basin 1984 TIM (SI)
Next storm 1984 ATU (SP)

top of page IBTrACS Data: File Access

Image of storm

top of page Plots:

Map of storm track will not appear if FTP is down
Time series of cyclone Maximum Sustained Wind will not appear if FTP is down
Time series of cyclone Minimum Central Pressure will not appear if FTP is down

top of page Track Data:Position

td9636 neumann
Date Lat Lon Lat Lon
1983-12-25 00:00:00 -13.1 82.5 -13.1 82.5
1983-12-25 06:00:00 -13.4 82.1 -13.3 81.9
1983-12-25 12:00:00 -13.5 81.7 -13.5 81.7
1983-12-25 18:00:00 -13.5 81.4 -13.6 81.4
1983-12-26 00:00:00 -13.7 81.2 -13.7 81.2
1983-12-26 06:00:00 -14.2 81.0 -14.4 81.1
1983-12-26 12:00:00 -15.1 81.3 -15.1 81.3
1983-12-26 18:00:00 -16.4 83.0 -15.7 81.7
1983-12-27 00:00:00 -17.4 84.6 -16.3 82.4
1983-12-27 06:00:00 -17.2 84.1 -16.6 83.2
1983-12-27 12:00:00 -16.7 83.6 -16.7 83.6
1983-12-27 18:00:00 -17.0 85.4 -17.0 84.0
1983-12-28 00:00:00 -17.4 87.2 -17.4 84.6
1983-12-28 06:00:00 -17.7 86.9 -17.7 85.5
1983-12-28 12:00:00 -17.8 86.2 -17.8 86.2
1983-12-28 18:00:00 -17.7 86.6 -17.7 86.8
1983-12-29 00:00:00 -17.4 87.2 -17.4 87.2
1983-12-29 06:00:00 -17.2 87.2 -17.1 87.1
1983-12-29 12:00:00 -17.0 87.0 -17.0 87.0
1983-12-29 18:00:00 -16.8 86.7 -16.8 86.7
1983-12-30 00:00:00 -16.7 86.5 -16.7 86.5
1983-12-30 06:00:00 -16.6 86.5 -16.7 86.1
1983-12-30 12:00:00 -16.6 86.5 -16.6 85.9
1983-12-30 18:00:00 -16.6 86.3 -16.6 85.7
1983-12-31 00:00:00 -16.5 85.9 -16.5 85.5

top of pageTrack Data:Intensity

td9636 neumann
Date Wind Pres Wind Pres
1983-12-25 00:00:00 22. 20. 1005.
1983-12-25 06:00:00 22. 25. 1001.
1983-12-25 12:00:00 27. 30. 999.
1983-12-25 18:00:00 27. 45. 990.
1983-12-26 00:00:00 54. 55. 986.
1983-12-26 06:00:00 54. 55. 984.
1983-12-26 12:00:00 54. 55. 986.
1983-12-26 18:00:00 54. 50. 987.
1983-12-27 00:00:00 54. 50. 988.
1983-12-27 06:00:00 54. 50. 988.
1983-12-27 12:00:00 49. 45. 990.
1983-12-27 18:00:00 49. 45. 991.
1983-12-28 00:00:00 38. 40. 994.
1983-12-28 06:00:00 38. 35. 996.
1983-12-28 12:00:00 32. 35. 997.
1983-12-28 18:00:00 32. 35. 997.
1983-12-29 00:00:00 32. 30. 1000.
1983-12-29 06:00:00 32. 25. 1001.
1983-12-29 12:00:00 27. 25. 1002.
1983-12-29 18:00:00 27. 25. 1002.
1983-12-30 00:00:00 22. 25. 1002.
1983-12-30 06:00:00 22. 25.
1983-12-30 12:00:00 22. 25. 1003.
1983-12-30 18:00:00 22. 20. 1004.
1983-12-31 00:00:00 22. 20. 1005.

top of page Links to source data

Source Source file Format
td9636 cons_worldwide_trop_cyclone_18710101-19891231-006:Line=11891 TD 9636
neumann tracks.sh:Storm=690:SHARON:BSH9984:AMM&BM692 HURDAT